sensor_id;sensor_type;location;lat;lon;timestamp;temperature;humidity
15083;DHT22;7640;53.116;6.878;2023-05-19T00:00:09;9.80;99.90
15083;DHT22;7640;53.116;6.878;2023-05-19T00:02:41;9.80;99.90
15083;DHT22;7640;53.116;6.878;2023-05-19T00:05:11;9.80;99.90
15083;DHT22;7640;53.116;6.878;2023-05-19T00:07:43;9.70;99.90
15083;DHT22;7640;53.116;6.878;2023-05-19T00:10:13;9.70;99.90
15083;DHT22;7640;53.116;6.878;2023-05-19T00:12:42;9.70;99.90
15083;DHT22;7640;53.116;6.878;2023-05-19T00:15:12;9.70;99.90
15083;DHT22;7640;53.116;6.878;2023-05-19T00:17:41;9.70;99.90
15083;DHT22;7640;53.116;6.878;2023-05-19T00:20:11;9.60;99.90
15083;DHT22;7640;53.116;6.878;2023-05-19T00:22:41;9.60;99.90
15083;DHT22;7640;53.116;6.878;2023-05-19T00:25:10;9.60;99.90
15083;DHT22;7640;53.116;6.878;2023-05-19T00:27:39;9.60;99.90
15083;DHT22;7640;53.116;6.878;2023-05-19T00:30:08;9.60;99.90
15083;DHT22;7640;53.116;6.878;2023-05-19T00:32:37;9.50;99.90
15083;DHT22;7640;53.116;6.878;2023-05-19T00:35:06;9.50;99.90
15083;DHT22;7640;53.116;6.878;2023-05-19T00:37:35;9.50;99.90
15083;DHT22;7640;53.116;6.878;2023-05-19T00:40:06;9.50;99.90
15083;DHT22;7640;53.116;6.878;2023-05-19T00:42:37;9.40;99.90
15083;DHT22;7640;53.116;6.878;2023-05-19T00:45:06;9.40;99.90
15083;DHT22;7640;53.116;6.878;2023-05-19T00:47:35;9.40;99.90
15083;DHT22;7640;53.116;6.878;2023-05-19T00:50:04;9.40;99.90
15083;DHT22;7640;53.116;6.878;2023-05-19T00:52:33;9.40;99.90
15083;DHT22;7640;53.116;6.878;2023-05-19T00:55:01;9.40;99.90
15083;DHT22;7640;53.116;6.878;2023-05-19T00:57:31;9.40;99.90
15083;DHT22;7640;53.116;6.878;2023-05-19T01:00:00;9.40;99.90
15083;DHT22;7640;53.116;6.878;2023-05-19T01:02:28;9.40;99.90
15083;DHT22;7640;53.116;6.878;2023-05-19T01:04:58;9.40;99.90
15083;DHT22;7640;53.116;6.878;2023-05-19T01:07:27;9.40;99.90
15083;DHT22;7640;53.116;6.878;2023-05-19T01:09:55;9.40;99.90
15083;DHT22;7640;53.116;6.878;2023-05-19T01:12:24;9.40;99.90
15083;DHT22;7640;53.116;6.878;2023-05-19T01:14:56;9.40;99.90
15083;DHT22;7640;53.116;6.878;2023-05-19T01:17:29;9.40;99.90
15083;DHT22;7640;53.116;6.878;2023-05-19T01:20:07;9.40;99.90
15083;DHT22;7640;53.116;6.878;2023-05-19T01:26:10;9.40;99.90
15083;DHT22;7640;53.116;6.878;2023-05-19T01:29:06;9.30;99.90
15083;DHT22;7640;53.116;6.878;2023-05-19T01:31:43;9.30;99.90
15083;DHT22;7640;53.116;6.878;2023-05-19T01:34:16;9.30;99.90
15083;DHT22;7640;53.116;6.878;2023-05-19T01:36:44;9.30;99.90
15083;DHT22;7640;53.116;6.878;2023-05-19T01:39:16;9.30;99.90
15083;DHT22;7640;53.116;6.878;2023-05-19T01:41:46;9.30;99.90
15083;DHT22;7640;53.116;6.878;2023-05-19T01:44:14;9.30;99.90
15083;DHT22;7640;53.116;6.878;2023-05-19T01:46:44;9.30;99.90
15083;DHT22;7640;53.116;6.878;2023-05-19T01:49:13;9.30;99.90
15083;DHT22;7640;53.116;6.878;2023-05-19T01:51:42;9.30;99.90
15083;DHT22;7640;53.116;6.878;2023-05-19T01:54:10;9.30;99.90
15083;DHT22;7640;53.116;6.878;2023-05-19T01:56:43;9.20;99.90
15083;DHT22;7640;53.116;6.878;2023-05-19T01:59:22;9.30;99.90
15083;DHT22;7640;53.116;6.878;2023-05-19T02:01:59;9.20;99.90
15083;DHT22;7640;53.116;6.878;2023-05-19T02:04:37;9.20;99.90
15083;DHT22;7640;53.116;6.878;2023-05-19T02:07:14;9.20;99.90
15083;DHT22;7640;53.116;6.878;2023-05-19T02:09:52;9.20;99.90
15083;DHT22;7640;53.116;6.878;2023-05-19T02:12:27;9.20;99.90
15083;DHT22;7640;53.116;6.878;2023-05-19T02:15:02;9.20;99.90
15083;DHT22;7640;53.116;6.878;2023-05-19T02:17:35;9.20;99.90
15083;DHT22;7640;53.116;6.878;2023-05-19T02:20:08;9.20;99.90
15083;DHT22;7640;53.116;6.878;2023-05-19T02:22:37;9.20;99.90
15083;DHT22;7640;53.116;6.878;2023-05-19T02:25:07;9.10;99.90
15083;DHT22;7640;53.116;6.878;2023-05-19T02:27:37;9.10;99.90
15083;DHT22;7640;53.116;6.878;2023-05-19T02:30:07;9.10;99.90
15083;DHT22;7640;53.116;6.878;2023-05-19T02:32:38;9.10;99.90
15083;DHT22;7640;53.116;6.878;2023-05-19T02:35:07;9.10;99.90
15083;DHT22;7640;53.116;6.878;2023-05-19T02:37:36;9.10;99.90
15083;DHT22;7640;53.116;6.878;2023-05-19T02:40:05;9.10;99.90
15083;DHT22;7640;53.116;6.878;2023-05-19T02:42:35;9.00;99.90
15083;DHT22;7640;53.116;6.878;2023-05-19T02:45:04;9.00;99.90
15083;DHT22;7640;53.116;6.878;2023-05-19T02:47:33;9.00;99.90
15083;DHT22;7640;53.116;6.878;2023-05-19T02:50:05;8.90;99.90
15083;DHT22;7640;53.116;6.878;2023-05-19T02:52:34;8.90;99.90
15083;DHT22;7640;53.116;6.878;2023-05-19T02:55:04;8.90;99.90
15083;DHT22;7640;53.116;6.878;2023-05-19T02:57:34;8.90;99.90
15083;DHT22;7640;53.116;6.878;2023-05-19T03:00:03;8.80;99.90
15083;DHT22;7640;53.116;6.878;2023-05-19T03:02:33;8.80;99.90
15083;DHT22;7640;53.116;6.878;2023-05-19T03:05:02;8.80;99.90
15083;DHT22;7640;53.116;6.878;2023-05-19T03:07:33;8.80;99.90
15083;DHT22;7640;53.116;6.878;2023-05-19T03:10:02;8.80;99.90
15083;DHT22;7640;53.116;6.878;2023-05-19T03:12:32;8.80;99.90
15083;DHT22;7640;53.116;6.878;2023-05-19T03:15:01;8.80;99.90
15083;DHT22;7640;53.116;6.878;2023-05-19T03:17:29;8.80;99.90
15083;DHT22;7640;53.116;6.878;2023-05-19T03:20:00;8.80;99.90
15083;DHT22;7640;53.116;6.878;2023-05-19T03:22:30;8.80;99.90
15083;DHT22;7640;53.116;6.878;2023-05-19T03:24:58;8.80;99.90
15083;DHT22;7640;53.116;6.878;2023-05-19T03:27:27;8.80;99.90
15083;DHT22;7640;53.116;6.878;2023-05-19T03:29:55;8.80;99.90
15083;DHT22;7640;53.116;6.878;2023-05-19T03:32:24;8.80;99.90
15083;DHT22;7640;53.116;6.878;2023-05-19T03:34:52;8.80;99.90
15083;DHT22;7640;53.116;6.878;2023-05-19T03:37:21;8.80;99.90
15083;DHT22;7640;53.116;6.878;2023-05-19T03:39:51;8.80;99.90
15083;DHT22;7640;53.116;6.878;2023-05-19T03:42:19;8.80;99.90
15083;DHT22;7640;53.116;6.878;2023-05-19T03:44:47;8.80;99.90
15083;DHT22;7640;53.116;6.878;2023-05-19T03:47:19;8.80;99.90
15083;DHT22;7640;53.116;6.878;2023-05-19T03:49:47;8.80;99.90
15083;DHT22;7640;53.116;6.878;2023-05-19T03:52:16;8.80;99.90
15083;DHT22;7640;53.116;6.878;2023-05-19T03:54:44;8.80;99.90
15083;DHT22;7640;53.116;6.878;2023-05-19T03:57:14;8.80;99.90
15083;DHT22;7640;53.116;6.878;2023-05-19T03:59:43;8.80;99.90
15083;DHT22;7640;53.116;6.878;2023-05-19T04:02:11;8.80;99.90
15083;DHT22;7640;53.116;6.878;2023-05-19T04:04:40;8.80;99.90
15083;DHT22;7640;53.116;6.878;2023-05-19T04:07:08;8.80;99.90
15083;DHT22;7640;53.116;6.878;2023-05-19T04:09:37;8.80;99.90
15083;DHT22;7640;53.116;6.878;2023-05-19T04:12:06;8.90;99.90
15083;DHT22;7640;53.116;6.878;2023-05-19T04:14:45;8.90;99.90
15083;DHT22;7640;53.116;6.878;2023-05-19T04:17:14;8.90;99.90
15083;DHT22;7640;53.116;6.878;2023-05-19T04:19:42;9.00;99.90
15083;DHT22;7640;53.116;6.878;2023-05-19T04:22:11;9.00;99.90
15083;DHT22;7640;53.116;6.878;2023-05-19T04:24:40;9.00;99.90
15083;DHT22;7640;53.116;6.878;2023-05-19T04:27:08;9.10;99.90
15083;DHT22;7640;53.116;6.878;2023-05-19T04:29:38;9.10;99.90
15083;DHT22;7640;53.116;6.878;2023-05-19T04:32:08;9.20;99.90
15083;DHT22;7640;53.116;6.878;2023-05-19T04:34:37;9.20;99.90
15083;DHT22;7640;53.116;6.878;2023-05-19T04:37:11;9.30;99.90
15083;DHT22;7640;53.116;6.878;2023-05-19T04:39:42;9.30;99.90
15083;DHT22;7640;53.116;6.878;2023-05-19T04:42:11;9.40;99.90
15083;DHT22;7640;53.116;6.878;2023-05-19T04:44:40;9.50;99.90
15083;DHT22;7640;53.116;6.878;2023-05-19T04:47:10;9.50;99.90
15083;DHT22;7640;53.116;6.878;2023-05-19T04:49:39;9.60;99.90
15083;DHT22;7640;53.116;6.878;2023-05-19T04:52:09;9.60;99.90
15083;DHT22;7640;53.116;6.878;2023-05-19T04:54:38;9.60;99.90
15083;DHT22;7640;53.116;6.878;2023-05-19T04:57:08;9.70;99.90
15083;DHT22;7640;53.116;6.878;2023-05-19T04:59:36;9.80;99.90
15083;DHT22;7640;53.116;6.878;2023-05-19T05:02:06;9.80;99.90
15083;DHT22;7640;53.116;6.878;2023-05-19T05:04:36;9.90;99.90
15083;DHT22;7640;53.116;6.878;2023-05-19T05:07:08;9.90;99.90
15083;DHT22;7640;53.116;6.878;2023-05-19T05:09:37;10.00;99.90
15083;DHT22;7640;53.116;6.878;2023-05-19T05:12:07;10.10;99.90
15083;DHT22;7640;53.116;6.878;2023-05-19T05:14:37;10.20;99.90
15083;DHT22;7640;53.116;6.878;2023-05-19T05:17:07;10.20;99.90
15083;DHT22;7640;53.116;6.878;2023-05-19T05:19:38;10.30;99.90
15083;DHT22;7640;53.116;6.878;2023-05-19T05:22:08;10.40;99.90
15083;DHT22;7640;53.116;6.878;2023-05-19T05:24:37;10.50;99.90
15083;DHT22;7640;53.116;6.878;2023-05-19T05:27:06;10.60;99.90
15083;DHT22;7640;53.116;6.878;2023-05-19T05:29:36;10.60;99.90
15083;DHT22;7640;53.116;6.878;2023-05-19T05:32:05;10.70;99.90
15083;DHT22;7640;53.116;6.878;2023-05-19T05:34:37;10.80;99.90
15083;DHT22;7640;53.116;6.878;2023-05-19T05:37:07;10.90;99.90
15083;DHT22;7640;53.116;6.878;2023-05-19T05:39:36;10.90;99.90
15083;DHT22;7640;53.116;6.878;2023-05-19T05:42:05;11.10;99.90
15083;DHT22;7640;53.116;6.878;2023-05-19T05:44:35;11.20;99.90
15083;DHT22;7640;53.116;6.878;2023-05-19T05:47:05;11.30;99.90
15083;DHT22;7640;53.116;6.878;2023-05-19T05:49:34;11.40;99.90
15083;DHT22;7640;53.116;6.878;2023-05-19T05:52:06;11.50;99.90
15083;DHT22;7640;53.116;6.878;2023-05-19T05:54:36;11.60;99.90
15083;DHT22;7640;53.116;6.878;2023-05-19T05:57:06;11.80;99.90
15083;DHT22;7640;53.116;6.878;2023-05-19T05:59:35;11.90;99.90
15083;DHT22;7640;53.116;6.878;2023-05-19T06:02:04;12.00;99.90
15083;DHT22;7640;53.116;6.878;2023-05-19T06:04:33;12.10;99.90
15083;DHT22;7640;53.116;6.878;2023-05-19T06:07:01;12.10;99.90
15083;DHT22;7640;53.116;6.878;2023-05-19T06:09:31;12.30;99.90
15083;DHT22;7640;53.116;6.878;2023-05-19T06:11:59;12.30;99.90
15083;DHT22;7640;53.116;6.878;2023-05-19T06:14:28;12.50;99.90
15083;DHT22;7640;53.116;6.878;2023-05-19T06:16:56;12.60;99.90
15083;DHT22;7640;53.116;6.878;2023-05-19T06:19:25;12.70;99.90
15083;DHT22;7640;53.116;6.878;2023-05-19T06:21:53;12.80;99.90
15083;DHT22;7640;53.116;6.878;2023-05-19T06:24:22;12.90;99.90
15083;DHT22;7640;53.116;6.878;2023-05-19T06:26:51;13.00;99.90
15083;DHT22;7640;53.116;6.878;2023-05-19T06:29:20;13.10;99.90
15083;DHT22;7640;53.116;6.878;2023-05-19T06:31:48;13.20;99.90
15083;DHT22;7640;53.116;6.878;2023-05-19T06:34:17;13.30;99.90
15083;DHT22;7640;53.116;6.878;2023-05-19T06:36:46;13.40;99.90
15083;DHT22;7640;53.116;6.878;2023-05-19T06:39:15;13.50;99.90
15083;DHT22;7640;53.116;6.878;2023-05-19T06:41:43;13.60;99.90
15083;DHT22;7640;53.116;6.878;2023-05-19T06:44:13;13.70;99.90
15083;DHT22;7640;53.116;6.878;2023-05-19T06:46:41;13.80;99.90
15083;DHT22;7640;53.116;6.878;2023-05-19T06:49:10;13.90;99.90
15083;DHT22;7640;53.116;6.878;2023-05-19T06:51:38;14.00;99.90
15083;DHT22;7640;53.116;6.878;2023-05-19T06:54:07;14.10;99.90
15083;DHT22;7640;53.116;6.878;2023-05-19T06:56:36;14.10;99.90
15083;DHT22;7640;53.116;6.878;2023-05-19T06:59:05;14.30;99.90
15083;DHT22;7640;53.116;6.878;2023-05-19T07:01:35;14.40;99.90
15083;DHT22;7640;53.116;6.878;2023-05-19T07:04:04;14.50;99.90
15083;DHT22;7640;53.116;6.878;2023-05-19T07:06:33;14.60;99.90
15083;DHT22;7640;53.116;6.878;2023-05-19T07:09:01;14.70;99.90
15083;DHT22;7640;53.116;6.878;2023-05-19T07:11:31;14.70;99.90
15083;DHT22;7640;53.116;6.878;2023-05-19T07:14:00;14.80;99.90
15083;DHT22;7640;53.116;6.878;2023-05-19T07:16:28;14.90;99.90
15083;DHT22;7640;53.116;6.878;2023-05-19T07:18:58;15.00;99.90
15083;DHT22;7640;53.116;6.878;2023-05-19T07:21:26;15.10;99.90
15083;DHT22;7640;53.116;6.878;2023-05-19T07:23:55;15.20;99.90
15083;DHT22;7640;53.116;6.878;2023-05-19T07:26:23;15.30;99.90
15083;DHT22;7640;53.116;6.878;2023-05-19T07:28:52;15.40;99.90
15083;DHT22;7640;53.116;6.878;2023-05-19T07:31:20;15.50;99.90
15083;DHT22;7640;53.116;6.878;2023-05-19T07:33:49;15.50;99.90
15083;DHT22;7640;53.116;6.878;2023-05-19T07:36:22;15.70;99.90
15083;DHT22;7640;53.116;6.878;2023-05-19T07:38:50;15.80;99.90
15083;DHT22;7640;53.116;6.878;2023-05-19T07:41:18;15.90;99.90
15083;DHT22;7640;53.116;6.878;2023-05-19T07:43:47;15.90;99.90
15083;DHT22;7640;53.116;6.878;2023-05-19T07:46:16;16.10;99.90
15083;DHT22;7640;53.116;6.878;2023-05-19T07:48:44;16.20;99.90
15083;DHT22;7640;53.116;6.878;2023-05-19T07:51:13;16.20;99.90
15083;DHT22;7640;53.116;6.878;2023-05-19T07:53:43;16.30;99.90
15083;DHT22;7640;53.116;6.878;2023-05-19T07:56:13;16.20;99.90
15083;DHT22;7640;53.116;6.878;2023-05-19T07:58:41;16.20;99.90
15083;DHT22;7640;53.116;6.878;2023-05-19T08:01:09;16.30;99.90
15083;DHT22;7640;53.116;6.878;2023-05-19T08:03:38;16.30;99.90
15083;DHT22;7640;53.116;6.878;2023-05-19T08:06:07;16.40;99.90
15083;DHT22;7640;53.116;6.878;2023-05-19T08:08:35;16.50;99.90
15083;DHT22;7640;53.116;6.878;2023-05-19T08:11:05;16.60;99.90
15083;DHT22;7640;53.116;6.878;2023-05-19T08:13:33;16.80;99.90
15083;DHT22;7640;53.116;6.878;2023-05-19T08:16:02;16.90;99.90
15083;DHT22;7640;53.116;6.878;2023-05-19T08:18:31;17.00;99.90
15083;DHT22;7640;53.116;6.878;2023-05-19T08:20:59;17.10;99.90
15083;DHT22;7640;53.116;6.878;2023-05-19T08:23:28;17.30;99.90
15083;DHT22;7640;53.116;6.878;2023-05-19T08:25:56;17.40;99.90
15083;DHT22;7640;53.116;6.878;2023-05-19T08:28:26;17.50;99.90
15083;DHT22;7640;53.116;6.878;2023-05-19T08:30:55;17.60;99.90
15083;DHT22;7640;53.116;6.878;2023-05-19T08:33:23;17.70;99.90
15083;DHT22;7640;53.116;6.878;2023-05-19T08:35:51;17.80;99.90
15083;DHT22;7640;53.116;6.878;2023-05-19T08:38:21;17.80;99.90
15083;DHT22;7640;53.116;6.878;2023-05-19T08:40:49;17.90;99.90
15083;DHT22;7640;53.116;6.878;2023-05-19T08:43:18;17.90;99.90
15083;DHT22;7640;53.116;6.878;2023-05-19T08:45:48;18.00;99.90
15083;DHT22;7640;53.116;6.878;2023-05-19T08:48:17;18.20;99.90
15083;DHT22;7640;53.116;6.878;2023-05-19T08:51:03;18.30;99.90
15083;DHT22;7640;53.116;6.878;2023-05-19T08:53:40;18.40;99.90
15083;DHT22;7640;53.116;6.878;2023-05-19T08:56:15;18.50;99.90
15083;DHT22;7640;53.116;6.878;2023-05-19T08:58:49;18.70;99.90
15083;DHT22;7640;53.116;6.878;2023-05-19T09:01:19;18.80;99.90
15083;DHT22;7640;53.116;6.878;2023-05-19T09:03:49;18.90;99.90
15083;DHT22;7640;53.116;6.878;2023-05-19T09:06:19;18.90;99.90
15083;DHT22;7640;53.116;6.878;2023-05-19T09:08:47;19.00;99.90
15083;DHT22;7640;53.116;6.878;2023-05-19T09:11:16;19.20;99.90
15083;DHT22;7640;53.116;6.878;2023-05-19T09:13:45;19.30;99.90
15083;DHT22;7640;53.116;6.878;2023-05-19T09:16:14;19.40;99.90
15083;DHT22;7640;53.116;6.878;2023-05-19T09:18:54;19.50;99.90
15083;DHT22;7640;53.116;6.878;2023-05-19T09:21:27;19.50;99.90
15083;DHT22;7640;53.116;6.878;2023-05-19T09:23:57;19.50;99.90
15083;DHT22;7640;53.116;6.878;2023-05-19T09:26:35;19.60;99.90
15083;DHT22;7640;53.116;6.878;2023-05-19T09:29:12;19.60;99.90
15083;DHT22;7640;53.116;6.878;2023-05-19T09:31:47;19.70;99.90
15083;DHT22;7640;53.116;6.878;2023-05-19T09:34:19;19.80;99.90
15083;DHT22;7640;53.116;6.878;2023-05-19T09:36:51;19.80;99.90
15083;DHT22;7640;53.116;6.878;2023-05-19T09:39:20;19.90;99.90
15083;DHT22;7640;53.116;6.878;2023-05-19T09:41:51;20.00;99.90
15083;DHT22;7640;53.116;6.878;2023-05-19T09:44:24;20.10;99.90
15083;DHT22;7640;53.116;6.878;2023-05-19T09:46:56;20.20;99.70
15083;DHT22;7640;53.116;6.878;2023-05-19T09:49:28;20.30;99.60
15083;DHT22;7640;53.116;6.878;2023-05-19T09:51:58;20.40;98.90
15083;DHT22;7640;53.116;6.878;2023-05-19T09:54:27;20.50;98.70
15083;DHT22;7640;53.116;6.878;2023-05-19T09:56:59;20.60;98.50
15083;DHT22;7640;53.116;6.878;2023-05-19T09:59:30;20.70;98.00
15083;DHT22;7640;53.116;6.878;2023-05-19T10:02:00;20.90;97.30
15083;DHT22;7640;53.116;6.878;2023-05-19T10:04:30;20.90;97.30
15083;DHT22;7640;53.116;6.878;2023-05-19T10:06:59;21.00;97.20
15083;DHT22;7640;53.116;6.878;2023-05-19T10:09:32;21.10;97.20
15083;DHT22;7640;53.116;6.878;2023-05-19T10:12:01;21.10;96.50
15083;DHT22;7640;53.116;6.878;2023-05-19T10:14:31;21.10;96.40
15083;DHT22;7640;53.116;6.878;2023-05-19T10:16:59;21.20;96.30
15083;DHT22;7640;53.116;6.878;2023-05-19T10:19:30;21.30;96.40
15083;DHT22;7640;53.116;6.878;2023-05-19T10:21:58;21.40;96.20
15083;DHT22;7640;53.116;6.878;2023-05-19T10:24:27;21.40;95.90
15083;DHT22;7640;53.116;6.878;2023-05-19T10:26:59;21.50;95.60
15083;DHT22;7640;53.116;6.878;2023-05-19T10:29:33;21.60;95.90
15083;DHT22;7640;53.116;6.878;2023-05-19T10:32:09;21.80;96.40
15083;DHT22;7640;53.116;6.878;2023-05-19T10:35:30;21.90;96.00
15083;DHT22;7640;53.116;6.878;2023-05-19T10:38:30;22.10;95.60
15083;DHT22;7640;53.116;6.878;2023-05-19T10:41:06;22.20;95.90
15083;DHT22;7640;53.116;6.878;2023-05-19T10:43:52;22.40;96.20
15083;DHT22;7640;53.116;6.878;2023-05-19T10:46:23;22.70;96.00
15083;DHT22;7640;53.116;6.878;2023-05-19T10:48:54;22.80;95.30
15083;DHT22;7640;53.116;6.878;2023-05-19T10:51:29;22.80;95.30
15083;DHT22;7640;53.116;6.878;2023-05-19T10:54:01;22.80;95.20
15083;DHT22;7640;53.116;6.878;2023-05-19T10:56:30;22.80;94.90
15083;DHT22;7640;53.116;6.878;2023-05-19T10:59:02;22.80;94.90
15083;DHT22;7640;53.116;6.878;2023-05-19T11:01:31;22.60;94.60
15083;DHT22;7640;53.116;6.878;2023-05-19T11:04:05;22.40;94.60
15083;DHT22;7640;53.116;6.878;2023-05-19T11:06:36;22.20;94.30
15083;DHT22;7640;53.116;6.878;2023-05-19T11:09:11;22.00;94.90
15083;DHT22;7640;53.116;6.878;2023-05-19T11:11:46;22.10;94.70
15083;DHT22;7640;53.116;6.878;2023-05-19T11:14:17;22.10;94.90
15083;DHT22;7640;53.116;6.878;2023-05-19T11:16:47;22.20;95.40
15083;DHT22;7640;53.116;6.878;2023-05-19T11:19:24;22.40;95.80
15083;DHT22;7640;53.116;6.878;2023-05-19T11:21:55;22.70;95.70
15083;DHT22;7640;53.116;6.878;2023-05-19T11:24:35;22.80;95.30
15083;DHT22;7640;53.116;6.878;2023-05-19T11:27:21;22.90;94.60
15083;DHT22;7640;53.116;6.878;2023-05-19T11:29:53;23.00;94.60
15083;DHT22;7640;53.116;6.878;2023-05-19T11:32:25;22.90;94.30
15083;DHT22;7640;53.116;6.878;2023-05-19T11:34:55;22.90;94.00
15083;DHT22;7640;53.116;6.878;2023-05-19T11:37:25;23.00;94.50
15083;DHT22;7640;53.116;6.878;2023-05-19T11:39:55;23.20;95.30
15083;DHT22;7640;53.116;6.878;2023-05-19T11:42:23;23.50;94.80
15083;DHT22;7640;53.116;6.878;2023-05-19T11:44:55;23.70;94.60
15083;DHT22;7640;53.116;6.878;2023-05-19T11:47:24;24.10;94.80
15083;DHT22;7640;53.116;6.878;2023-05-19T11:49:53;24.30;93.70
15083;DHT22;7640;53.116;6.878;2023-05-19T11:52:25;24.40;93.40
15083;DHT22;7640;53.116;6.878;2023-05-19T11:54:54;24.50;93.20
15083;DHT22;7640;53.116;6.878;2023-05-19T11:57:24;24.70;93.40
15083;DHT22;7640;53.116;6.878;2023-05-19T11:59:52;25.00;93.20
15083;DHT22;7640;53.116;6.878;2023-05-19T12:02:23;25.30;93.20
15083;DHT22;7640;53.116;6.878;2023-05-19T12:04:53;25.50;92.30
15083;DHT22;7640;53.116;6.878;2023-05-19T12:07:23;25.40;91.70
15083;DHT22;7640;53.116;6.878;2023-05-19T12:09:54;25.30;92.00
15083;DHT22;7640;53.116;6.878;2023-05-19T12:12:22;25.50;92.00
15083;DHT22;7640;53.116;6.878;2023-05-19T12:14:51;25.60;91.70
15083;DHT22;7640;53.116;6.878;2023-05-19T12:17:20;25.80;90.90
15083;DHT22;7640;53.116;6.878;2023-05-19T12:19:50;25.90;90.90
15083;DHT22;7640;53.116;6.878;2023-05-19T12:22:19;26.10;91.00
15083;DHT22;7640;53.116;6.878;2023-05-19T12:24:49;26.30;90.90
15083;DHT22;7640;53.116;6.878;2023-05-19T12:27:19;26.60;90.00
15083;DHT22;7640;53.116;6.878;2023-05-19T12:29:50;26.80;90.20
15083;DHT22;7640;53.116;6.878;2023-05-19T12:32:22;26.90;90.00
15083;DHT22;7640;53.116;6.878;2023-05-19T12:34:51;27.00;88.40
15083;DHT22;7640;53.116;6.878;2023-05-19T12:37:21;26.90;88.40
15083;DHT22;7640;53.116;6.878;2023-05-19T12:39:51;26.90;89.80
15083;DHT22;7640;53.116;6.878;2023-05-19T12:42:19;27.00;87.10
15083;DHT22;7640;53.116;6.878;2023-05-19T12:44:49;27.00;87.30
15083;DHT22;7640;53.116;6.878;2023-05-19T12:47:19;27.10;88.50
15083;DHT22;7640;53.116;6.878;2023-05-19T12:49:55;27.20;88.50
15083;DHT22;7640;53.116;6.878;2023-05-19T12:52:24;27.10;86.40
15083;DHT22;7640;53.116;6.878;2023-05-19T12:54:58;26.90;86.50
15083;DHT22;7640;53.116;6.878;2023-05-19T12:57:28;27.00;87.60
15083;DHT22;7640;53.116;6.878;2023-05-19T13:00:02;27.30;86.50
15083;DHT22;7640;53.116;6.878;2023-05-19T13:02:33;27.90;86.00
15083;DHT22;7640;53.116;6.878;2023-05-19T13:05:02;28.30;85.40
15083;DHT22;7640;53.116;6.878;2023-05-19T13:07:31;28.50;83.50
15083;DHT22;7640;53.116;6.878;2023-05-19T13:10:03;28.60;83.70
15083;DHT22;7640;53.116;6.878;2023-05-19T13:12:32;28.70;83.40
15083;DHT22;7640;53.116;6.878;2023-05-19T13:15:01;28.80;83.20
15083;DHT22;7640;53.116;6.878;2023-05-19T13:17:29;28.80;82.30
15083;DHT22;7640;53.116;6.878;2023-05-19T13:19:57;28.80;82.40
15083;DHT22;7640;53.116;6.878;2023-05-19T13:22:26;28.60;82.30
15083;DHT22;7640;53.116;6.878;2023-05-19T13:24:54;28.50;81.90
15083;DHT22;7640;53.116;6.878;2023-05-19T13:27:26;28.30;81.00
15083;DHT22;7640;53.116;6.878;2023-05-19T13:29:54;28.10;80.90
15083;DHT22;7640;53.116;6.878;2023-05-19T13:32:23;27.90;81.80
15083;DHT22;7640;53.116;6.878;2023-05-19T13:34:51;27.90;82.90
15083;DHT22;7640;53.116;6.878;2023-05-19T13:37:20;28.10;83.10
15083;DHT22;7640;53.116;6.878;2023-05-19T13:39:48;28.20;80.30
15083;DHT22;7640;53.116;6.878;2023-05-19T13:42:16;28.10;78.70
15083;DHT22;7640;53.116;6.878;2023-05-19T13:44:46;28.00;79.50
15083;DHT22;7640;53.116;6.878;2023-05-19T13:47:15;28.00;81.70
15083;DHT22;7640;53.116;6.878;2023-05-19T13:49:43;28.40;82.00
15083;DHT22;7640;53.116;6.878;2023-05-19T13:52:12;28.80;80.50
15083;DHT22;7640;53.116;6.878;2023-05-19T13:54:40;29.30;79.10
15083;DHT22;7640;53.116;6.878;2023-05-19T13:57:09;29.30;77.90
15083;DHT22;7640;53.116;6.878;2023-05-19T13:59:37;29.00;77.60
15083;DHT22;7640;53.116;6.878;2023-05-19T14:02:28;28.90;79.50
15083;DHT22;7640;53.116;6.878;2023-05-19T14:04:57;29.30;78.70
15083;DHT22;7640;53.116;6.878;2023-05-19T14:07:25;29.50;76.50
15083;DHT22;7640;53.116;6.878;2023-05-19T14:09:54;29.20;77.70
15083;DHT22;7640;53.116;6.878;2023-05-19T14:12:24;28.90;77.00
15083;DHT22;7640;53.116;6.878;2023-05-19T14:15:06;28.60;77.10
15083;DHT22;7640;53.116;6.878;2023-05-19T14:17:38;28.60;78.00
15083;DHT22;7640;53.116;6.878;2023-05-19T14:20:08;29.10;77.30
15083;DHT22;7640;53.116;6.878;2023-05-19T14:22:37;29.80;77.60
15083;DHT22;7640;53.116;6.878;2023-05-19T14:25:06;30.40;75.80
15083;DHT22;7640;53.116;6.878;2023-05-19T14:27:35;30.40;73.10
15083;DHT22;7640;53.116;6.878;2023-05-19T14:30:07;29.90;72.70
15083;DHT22;7640;53.116;6.878;2023-05-19T14:32:37;29.30;72.80
15083;DHT22;7640;53.116;6.878;2023-05-19T14:35:06;28.60;73.30
15083;DHT22;7640;53.116;6.878;2023-05-19T14:37:35;28.50;75.40
15083;DHT22;7640;53.116;6.878;2023-05-19T14:40:04;28.80;75.60
15083;DHT22;7640;53.116;6.878;2023-05-19T14:42:33;29.40;76.00
15083;DHT22;7640;53.116;6.878;2023-05-19T14:45:02;29.90;74.80
15083;DHT22;7640;53.116;6.878;2023-05-19T14:47:31;30.20;72.10
15083;DHT22;7640;53.116;6.878;2023-05-19T14:50:01;30.00;71.90
15083;DHT22;7640;53.116;6.878;2023-05-19T14:52:29;29.60;72.80
15083;DHT22;7640;53.116;6.878;2023-05-19T14:54:58;29.40;74.70
15083;DHT22;7640;53.116;6.878;2023-05-19T14:57:26;29.90;74.70
15083;DHT22;7640;53.116;6.878;2023-05-19T14:59:55;30.80;74.20
15083;DHT22;7640;53.116;6.878;2023-05-19T15:02:23;31.50;72.80
15083;DHT22;7640;53.116;6.878;2023-05-19T15:04:55;31.70;71.40
15083;DHT22;7640;53.116;6.878;2023-05-19T15:07:25;31.20;70.60
15083;DHT22;7640;53.116;6.878;2023-05-19T15:09:53;30.60;70.90
15083;DHT22;7640;53.116;6.878;2023-05-19T15:12:22;29.90;71.50
15083;DHT22;7640;53.116;6.878;2023-05-19T15:14:50;29.30;72.50
15083;DHT22;7640;53.116;6.878;2023-05-19T15:17:19;28.80;72.40
15083;DHT22;7640;53.116;6.878;2023-05-19T15:19:47;28.40;73.70
15083;DHT22;7640;53.116;6.878;2023-05-19T15:22:16;28.50;75.80
15083;DHT22;7640;53.116;6.878;2023-05-19T15:24:46;29.10;75.80
15083;DHT22;7640;53.116;6.878;2023-05-19T15:27:14;29.60;73.10
15083;DHT22;7640;53.116;6.878;2023-05-19T15:29:43;29.50;72.40
15083;DHT22;7640;53.116;6.878;2023-05-19T15:32:11;29.10;72.50
15083;DHT22;7640;53.116;6.878;2023-05-19T15:34:39;28.50;73.10
15083;DHT22;7640;53.116;6.878;2023-05-19T15:37:08;28.10;76.00
15083;DHT22;7640;53.116;6.878;2023-05-19T15:39:36;28.40;77.50
15083;DHT22;7640;53.116;6.878;2023-05-19T15:42:06;29.10;76.60
15083;DHT22;7640;53.116;6.878;2023-05-19T15:44:35;30.00;75.10
15083;DHT22;7640;53.116;6.878;2023-05-19T15:47:04;30.70;73.20
15083;DHT22;7640;53.116;6.878;2023-05-19T15:49:32;31.40;71.80
15083;DHT22;7640;53.116;6.878;2023-05-19T15:52:02;32.10;70.70
15083;DHT22;7640;53.116;6.878;2023-05-19T15:54:31;32.70;68.90
15083;DHT22;7640;53.116;6.878;2023-05-19T15:56:59;33.10;67.40
15083;DHT22;7640;53.116;6.878;2023-05-19T15:59:29;33.30;67.00
15083;DHT22;7640;53.116;6.878;2023-05-19T16:01:57;33.50;66.60
15083;DHT22;7640;53.116;6.878;2023-05-19T16:04:26;33.90;66.20
15083;DHT22;7640;53.116;6.878;2023-05-19T16:06:55;34.30;65.50
15083;DHT22;7640;53.116;6.878;2023-05-19T16:09:23;34.60;65.10
15083;DHT22;7640;53.116;6.878;2023-05-19T16:11:52;34.90;63.90